Time;durP1;ratioP1;P1;durP2;ratioP2;P2;SDS_P1;SDS_P2;PMS_P1;PMS_P2;Temp;Humidity;BMP_temperature;BMP_pressure;BME280_temperature;BME280_humidity;BME280_pressure;Samples;Min_cycle;Max_cycle;Signal;HPM_P1;HPM_P2
2024/04/15 00:00:49;;;;;;;;;;;12.20;99.90;;;;;;2231555;26;19985;-69
2024/04/15 00:01:49;;;;;;;;;;;12.20;99.90;;;;;;2210658;26;19938;-70
2024/04/15 00:02:50;;;;;;;;;;;12.20;99.90;;;;;;2216737;26;20057;-69
2024/04/15 00:03:50;;;;;;;;;;;12.20;99.90;;;;;;2222816;26;20524;-69
2024/04/15 00:04:51;;;;;;;;;;;12.20;99.90;;;;;;2232155;26;20015;-69
2024/04/15 00:05:51;;;;;;;;;;;12.20;99.90;;;;;;2231044;26;19987;-70
2024/04/15 00:06:52;;;;;;;;;;;12.20;99.90;;;;;;2202015;26;19984;-69
2024/04/15 00:07:52;;;;;;;;;;;12.20;99.90;;;;;;2205661;26;19984;-69
2024/04/15 00:08:53;;;;;;;;;;;12.20;99.90;;;;;;2240733;26;19928;-69
2024/04/15 00:09:53;;;;;;;;;;;12.30;99.90;;;;;;2201229;26;19938;-70
2024/04/15 00:10:54;;;;;;;;;;;12.30;99.90;;;;;;2204312;26;20306;-70
2024/04/15 00:11:54;;;;;;;;;;;12.30;99.90;;;;;;2224354;26;20414;-69
2024/04/15 00:12:55;;;;;;;;;;;12.20;99.90;;;;;;2228764;26;19998;-70
2024/04/15 00:13:55;;;;;;;;;;;12.20;99.90;;;;;;2228360;26;19929;-70
2024/04/15 00:14:56;;;;;;;;;;;12.20;99.90;;;;;;2225047;26;19929;-69
2024/04/15 00:15:57;;;;;;;;;;;12.20;99.90;;;;;;2209614;26;19930;-69
2024/04/15 00:16:57;;;;;;;;;;;12.10;99.90;;;;;;2213869;26;19937;-70
2024/04/15 00:17:58;;;;;;;;;;;12.20;99.90;;;;;;2213041;26;19940;-70
2024/04/15 00:18:58;;;;;;;;;;;12.20;99.90;;;;;;2225264;26;19938;-70
2024/04/15 00:19:59;;;;;;;;;;;12.20;99.90;;;;;;2199158;26;19938;-70
2024/04/15 00:21:00;;;;;;;;;;;12.20;99.90;;;;;;2199193;26;19937;-69
2024/04/15 00:22:00;;;;;;;;;;;12.20;99.90;;;;;;2210058;26;19930;-69
2024/04/15 00:23:01;;;;;;;;;;;12.20;99.90;;;;;;2213199;26;19941;-69
2024/04/15 00:24:02;;;;;;;;;;;12.10;99.90;;;;;;2229630;26;19929;-70
2024/04/15 00:25:03;;;;;;;;;;;12.20;99.90;;;;;;2225199;26;20427;-71
2024/04/15 00:26:03;;;;;;;;;;;12.20;99.90;;;;;;2212238;26;20451;-69
2024/04/15 00:27:04;;;;;;;;;;;12.20;99.90;;;;;;2214051;26;19937;-70
2024/04/15 00:28:04;;;;;;;;;;;12.20;99.90;;;;;;2223706;26;20241;-70
2024/04/15 00:29:05;;;;;;;;;;;12.20;99.90;;;;;;2227319;26;19941;-69
2024/04/15 00:30:05;;;;;;;;;;;12.20;99.90;;;;;;2230746;26;19941;-70
2024/04/15 00:31:06;;;;;;;;;;;12.20;99.90;;;;;;2204766;26;20160;-70
2024/04/15 00:32:07;;;;;;;;;;;12.20;99.90;;;;;;2210024;26;19937;-70
2024/04/15 00:33:08;;;;;;;;;;;12.20;99.90;;;;;;2226932;26;19945;-69
2024/04/15 00:34:10;;;;;;;;;;;12.10;99.90;;;;;;2226580;26;20036;-69
2024/04/15 00:35:10;;;;;;;;;;;12.10;99.90;;;;;;2230702;26;20023;-70
2024/04/15 00:36:11;;;;;;;;;;;12.10;99.90;;;;;;2225452;26;19937;-70
2024/04/15 00:37:11;;;;;;;;;;;12.20;99.90;;;;;;2227322;26;19929;-69
2024/04/15 00:38:15;;;;;;;;;;;12.10;99.90;;;;;;2215401;26;19937;-69
2024/04/15 00:39:15;;;;;;;;;;;12.20;99.90;;;;;;2210835;26;19937;-69
2024/04/15 00:40:16;;;;;;;;;;;12.20;99.90;;;;;;2210546;26;19942;-73
2024/04/15 00:41:16;;;;;;;;;;;12.20;99.90;;;;;;2216568;26;19936;-75
2024/04/15 00:42:17;;;;;;;;;;;12.20;99.90;;;;;;2209549;26;19929;-74
2024/04/15 00:43:17;;;;;;;;;;;12.10;99.90;;;;;;2210415;26;19936;-74
2024/04/15 00:44:18;;;;;;;;;;;12.10;99.90;;;;;;2232976;26;19998;-74
2024/04/15 00:45:31;;;;;;;;;;;12.20;99.90;;;;;;2225102;26;20271;-74
2024/04/15 00:46:31;;;;;;;;;;;12.20;99.90;;;;;;2209215;26;19934;-74
2024/04/15 00:47:33;;;;;;;;;;;12.20;99.90;;;;;;2217021;26;19984;-75
2024/04/15 00:48:34;;;;;;;;;;;12.20;99.90;;;;;;2232606;26;19929;-74
2024/04/15 00:49:34;;;;;;;;;;;12.20;99.90;;;;;;2224934;26;19936;-73
2024/04/15 00:50:35;;;;;;;;;;;12.20;99.90;;;;;;2198786;26;19930;-74
2024/04/15 00:51:37;;;;;;;;;;;12.20;99.90;;;;;;2195484;26;19938;-73
2024/04/15 00:52:38;;;;;;;;;;;12.20;99.90;;;;;;2225332;26;19940;-74
2024/04/15 00:53:39;;;;;;;;;;;12.20;99.90;;;;;;2228685;26;19929;-73
2024/04/15 00:54:40;;;;;;;;;;;12.20;99.90;;;;;;2231725;26;19929;-72
2024/04/15 00:55:43;;;;;;;;;;;12.10;99.90;;;;;;2212876;26;19937;-72
2024/04/15 00:56:44;;;;;;;;;;;12.10;99.90;;;;;;2217395;26;20726;-73
2024/04/15 00:57:45;;;;;;;;;;;12.10;99.90;;;;;;2216946;26;19949;-75
2024/04/15 00:58:45;;;;;;;;;;;12.10;99.90;;;;;;2211560;26;19938;-73
2024/04/15 00:59:47;;;;;;;;;;;12.20;99.90;;;;;;2230966;26;20052;-73
2024/04/15 01:00:48;;;;;;;;;;;12.20;99.90;;;;;;2209849;26;19998;-74
2024/04/15 01:01:50;;;;;;;;;;;12.20;99.90;;;;;;2202265;26;20372;-74
2024/04/15 01:02:50;;;;;;;;;;;12.30;99.90;;;;;;2216890;26;20320;-73
2024/04/15 01:03:51;;;;;;;;;;;12.30;99.90;;;;;;2224705;26;20326;-72
2024/04/15 01:04:52;;;;;;;;;;;12.30;99.90;;;;;;2225899;26;20425;-74
2024/04/15 01:05:52;;;;;;;;;;;12.20;99.90;;;;;;2232772;26;19935;-73
2024/04/15 01:06:53;;;;;;;;;;;12.30;99.90;;;;;;2209151;26;19929;-72
2024/04/15 01:07:54;;;;;;;;;;;12.20;99.90;;;;;;2202322;26;20096;-72
2024/04/15 01:08:54;;;;;;;;;;;12.20;99.90;;;;;;2231475;26;20051;-72
2024/04/15 01:09:55;;;;;;;;;;;12.20;99.90;;;;;;2225864;26;20387;-72
2024/04/15 01:10:55;;;;;;;;;;;12.20;99.90;;;;;;2227593;26;19929;-73
2024/04/15 01:11:56;;;;;;;;;;;12.20;99.90;;;;;;2225581;26;19961;-73
2024/04/15 01:12:56;;;;;;;;;;;12.20;99.90;;;;;;2211749;26;19933;-74
2024/04/15 01:13:57;;;;;;;;;;;12.20;99.90;;;;;;2216981;26;19930;-74
2024/04/15 01:14:57;;;;;;;;;;;12.30;99.90;;;;;;2225592;26;19997;-74
2024/04/15 01:15:58;;;;;;;;;;;12.30;99.90;;;;;;2226221;26;19930;-73
2024/04/15 01:16:59;;;;;;;;;;;12.40;99.90;;;;;;2225672;26;19965;-72
2024/04/15 01:18:01;;;;;;;;;;;12.40;99.90;;;;;;2225699;26;20445;-73
2024/04/15 01:19:01;;;;;;;;;;;12.40;99.90;;;;;;2209998;26;20000;-73
2024/04/15 01:20:02;;;;;;;;;;;12.30;99.90;;;;;;2202236;26;20039;-73
2024/04/15 01:21:03;;;;;;;;;;;12.30;99.90;;;;;;2210891;26;19929;-74
2024/04/15 01:22:05;;;;;;;;;;;12.30;99.90;;;;;;2225600;26;19937;-73
2024/04/15 01:23:10;;;;;;;;;;;12.30;99.90;;;;;;2230645;26;19936;-73
2024/04/15 01:24:10;;;;;;;;;;;12.20;99.90;;;;;;2227874;26;19940;-73
2024/04/15 01:25:11;;;;;;;;;;;12.20;99.90;;;;;;2225260;26;19939;-73
2024/04/15 01:26:11;;;;;;;;;;;12.20;99.90;;;;;;2214975;26;20344;-73
2024/04/15 01:27:12;;;;;;;;;;;12.20;99.90;;;;;;2212546;26;19930;-74
2024/04/15 01:28:13;;;;;;;;;;;12.30;99.90;;;;;;2225710;26;19941;-74
2024/04/15 01:29:14;;;;;;;;;;;12.30;99.90;;;;;;2224149;26;19934;-74
2024/04/15 01:30:14;;;;;;;;;;;12.30;99.90;;;;;;2202073;26;19934;-75
2024/04/15 01:31:15;;;;;;;;;;;12.30;99.90;;;;;;2195661;26;20296;-74
2024/04/15 01:32:15;;;;;;;;;;;12.20;99.90;;;;;;2202679;26;19944;-74
2024/04/15 01:33:15;;;;;;;;;;;12.30;99.90;;;;;;2201941;26;19965;-73
2024/04/15 01:34:16;;;;;;;;;;;12.30;99.90;;;;;;2199561;26;19930;-76
2024/04/15 01:35:19;;;;;;;;;;;12.30;99.90;;;;;;2228210;26;20034;-73
2024/04/15 01:36:20;;;;;;;;;;;12.30;99.90;;;;;;2232268;26;20337;-74
2024/04/15 01:37:20;;;;;;;;;;;12.20;99.90;;;;;;2228177;26;19940;-71
2024/04/15 01:38:21;;;;;;;;;;;12.20;99.90;;;;;;2229323;26;19944;-73
2024/04/15 01:39:21;;;;;;;;;;;12.10;99.90;;;;;;2209907;26;19930;-72
2024/04/15 01:40:21;;;;;;;;;;;12.10;99.90;;;;;;2205054;26;19933;-73
2024/04/15 01:41:22;;;;;;;;;;;12.10;99.90;;;;;;2229828;26;19929;-74
2024/04/15 01:42:23;;;;;;;;;;;12.10;99.90;;;;;;2232307;26;20571;-73
2024/04/15 01:43:23;;;;;;;;;;;12.10;99.90;;;;;;2227609;26;19937;-75
2024/04/15 01:44:24;;;;;;;;;;;12.10;99.90;;;;;;2231177;26;19945;-73
2024/04/15 01:45:24;;;;;;;;;;;12.10;99.90;;;;;;2230216;26;19933;-73
2024/04/15 01:46:24;;;;;;;;;;;12.00;99.90;;;;;;2225380;26;19935;-72
2024/04/15 01:47:25;;;;;;;;;;;12.10;99.90;;;;;;2207061;26;19936;-73
2024/04/15 01:48:25;;;;;;;;;;;12.00;99.90;;;;;;2208648;26;20242;-74
2024/04/15 01:49:26;;;;;;;;;;;12.10;99.90;;;;;;2227488;26;20064;-74
2024/04/15 01:50:26;;;;;;;;;;;12.10;99.90;;;;;;2231056;26;19933;-73
2024/04/15 01:51:27;;;;;;;;;;;12.10;99.90;;;;;;2225017;26;19937;-74
2024/04/15 01:52:27;;;;;;;;;;;12.20;99.90;;;;;;2227985;26;19969;-73
2024/04/15 01:53:28;;;;;;;;;;;12.20;99.90;;;;;;2229965;26;20395;-74
2024/04/15 01:54:28;;;;;;;;;;;12.20;99.90;;;;;;2223515;26;20390;-73
2024/04/15 01:55:29;;;;;;;;;;;12.10;99.90;;;;;;2227390;26;20113;-73
2024/04/15 01:56:29;;;;;;;;;;;12.10;99.90;;;;;;2213943;26;19929;-73
2024/04/15 01:57:30;;;;;;;;;;;12.10;99.90;;;;;;2209722;26;20390;-73
2024/04/15 01:58:30;;;;;;;;;;;12.10;99.90;;;;;;2226668;26;20032;-73
2024/04/15 01:59:31;;;;;;;;;;;12.10;99.90;;;;;;2230351;26;19929;-73
2024/04/15 02:00:31;;;;;;;;;;;12.10;99.90;;;;;;2224617;26;20308;-73
2024/04/15 02:01:34;;;;;;;;;;;12.10;99.90;;;;;;2225938;26;19937;-73
2024/04/15 02:02:35;;;;;;;;;;;12.20;99.90;;;;;;2230905;26;19929;-73
2024/04/15 02:03:35;;;;;;;;;;;12.20;99.90;;;;;;2227902;26;19940;-74
2024/04/15 02:04:36;;;;;;;;;;;12.20;99.90;;;;;;2225431;26;20496;-74
2024/04/15 02:05:36;;;;;;;;;;;12.20;99.90;;;;;;2225030;26;19929;-74
2024/04/15 02:06:36;;;;;;;;;;;12.20;99.90;;;;;;2230533;26;19945;-73
2024/04/15 02:07:37;;;;;;;;;;;12.20;99.90;;;;;;2231279;26;20383;-74
2024/04/15 02:08:37;;;;;;;;;;;12.20;99.90;;;;;;2225256;26;19980;-74
2024/04/15 02:09:38;;;;;;;;;;;12.20;99.90;;;;;;2226702;26;19998;-74
2024/04/15 02:10:39;;;;;;;;;;;12.10;99.90;;;;;;2230712;26;19936;-74
2024/04/15 02:11:39;;;;;;;;;;;12.10;99.90;;;;;;2230830;26;19935;-74
2024/04/15 02:12:39;;;;;;;;;;;12.10;99.90;;;;;;2225732;26;19929;-73
2024/04/15 02:13:40;;;;;;;;;;;12.20;99.90;;;;;;2231174;26;19929;-73
2024/04/15 02:14:40;;;;;;;;;;;12.10;99.90;;;;;;2230582;26;19936;-74
2024/04/15 02:15:41;;;;;;;;;;;12.10;99.90;;;;;;2225668;26;19941;-74
2024/04/15 02:16:41;;;;;;;;;;;12.00;99.90;;;;;;2231251;26;19936;-75
2024/04/15 02:17:42;;;;;;;;;;;12.00;99.90;;;;;;2224967;26;19929;-74
2024/04/15 02:18:42;;;;;;;;;;;12.00;99.90;;;;;;2209446;26;19941;-72
2024/04/15 02:19:43;;;;;;;;;;;12.00;99.90;;;;;;2216345;26;19941;-73
2024/04/15 02:20:43;;;;;;;;;;;12.00;99.90;;;;;;2209586;26;19929;-73
2024/04/15 02:21:44;;;;;;;;;;;12.10;99.90;;;;;;2209466;26;19941;-72
2024/04/15 02:22:44;;;;;;;;;;;12.10;99.90;;;;;;2216587;26;20369;-73
2024/04/15 02:23:45;;;;;;;;;;;12.10;99.90;;;;;;2223643;26;20241;-72
2024/04/15 02:24:45;;;;;;;;;;;12.00;99.90;;;;;;2211023;26;19941;-72
2024/04/15 02:25:46;;;;;;;;;;;11.90;99.90;;;;;;2201720;26;20296;-73
2024/04/15 02:26:46;;;;;;;;;;;11.90;99.90;;;;;;2215734;26;19929;-72
2024/04/15 02:27:47;;;;;;;;;;;11.80;99.90;;;;;;2201855;26;19938;-74
2024/04/15 02:28:47;;;;;;;;;;;11.70;99.90;;;;;;2209801;26;19938;-73
2024/04/15 02:29:48;;;;;;;;;;;11.80;99.90;;;;;;2224915;26;19929;-72
2024/04/15 02:30:51;;;;;;;;;;;11.80;99.90;;;;;;2231082;26;19936;-73
2024/04/15 02:31:52;;;;;;;;;;;11.70;99.90;;;;;;2226971;26;19929;-73
2024/04/15 02:32:52;;;;;;;;;;;11.80;99.90;;;;;;2224770;26;20441;-73
2024/04/15 02:33:52;;;;;;;;;;;11.80;99.90;;;;;;2231170;26;20298;-74
2024/04/15 02:34:53;;;;;;;;;;;11.80;99.90;;;;;;2210178;26;19941;-73
2024/04/15 02:35:53;;;;;;;;;;;11.70;99.90;;;;;;2209464;26;19934;-73
2024/04/15 02:36:55;;;;;;;;;;;11.70;99.90;;;;;;2230515;26;19929;-73
2024/04/15 02:37:56;;;;;;;;;;;11.80;99.90;;;;;;2226440;26;19979;-74
2024/04/15 02:38:56;;;;;;;;;;;11.70;99.90;;;;;;2225235;26;19941;-74
2024/04/15 02:39:58;;;;;;;;;;;11.70;99.90;;;;;;2213202;26;21173;-74
2024/04/15 02:40:59;;;;;;;;;;;11.80;99.90;;;;;;2197248;26;19930;-74
2024/04/15 02:41:59;;;;;;;;;;;11.80;99.90;;;;;;2212682;26;19973;-73
2024/04/15 02:43:00;;;;;;;;;;;11.80;99.90;;;;;;2208512;26;20383;-74
2024/04/15 02:44:00;;;;;;;;;;;11.70;99.90;;;;;;2194973;26;19931;-72
2024/04/15 02:45:01;;;;;;;;;;;11.70;99.90;;;;;;2214799;26;19929;-72
2024/04/15 02:46:01;;;;;;;;;;;11.50;99.90;;;;;;2210517;26;20412;-73
2024/04/15 02:47:02;;;;;;;;;;;11.40;99.90;;;;;;2215336;26;20518;-73
2024/04/15 02:48:03;;;;;;;;;;;11.30;99.90;;;;;;2230424;26;19936;-72
2024/04/15 02:49:03;;;;;;;;;;;11.30;99.90;;;;;;2226751;26;19929;-74
2024/04/15 02:50:04;;;;;;;;;;;11.30;99.90;;;;;;2224852;26;19930;-74
2024/04/15 02:51:04;;;;;;;;;;;11.20;99.90;;;;;;2229505;26;19929;-74
2024/04/15 02:52:05;;;;;;;;;;;11.20;99.90;;;;;;2226925;26;20262;-73
2024/04/15 02:53:05;;;;;;;;;;;11.10;99.90;;;;;;2224964;26;19937;-73
2024/04/15 02:54:06;;;;;;;;;;;11.00;99.90;;;;;;2221013;26;19939;-73
2024/04/15 02:55:07;;;;;;;;;;;11.00;99.90;;;;;;2227774;26;19972;-73
2024/04/15 02:56:07;;;;;;;;;;;10.90;99.90;;;;;;2224899;26;20258;-74
2024/04/15 02:57:08;;;;;;;;;;;10.90;99.90;;;;;;2228558;26;19936;-74
2024/04/15 02:58:08;;;;;;;;;;;10.80;99.90;;;;;;2212541;26;19930;-74
2024/04/15 02:59:09;;;;;;;;;;;10.70;99.90;;;;;;2208844;26;19937;-74
2024/04/15 03:00:09;;;;;;;;;;;10.60;99.90;;;;;;2231294;26;20305;-74
2024/04/15 03:01:10;;;;;;;;;;;10.50;99.90;;;;;;2231277;26;19998;-74
2024/04/15 03:02:10;;;;;;;;;;;10.40;99.90;;;;;;2218530;26;19929;-73
2024/04/15 03:03:11;;;;;;;;;;;10.40;99.90;;;;;;2197193;26;20277;-75
2024/04/15 03:04:11;;;;;;;;;;;10.30;99.90;;;;;;2209411;26;19937;-76
2024/04/15 03:05:12;;;;;;;;;;;10.20;99.90;;;;;;2198463;26;19938;-76
2024/04/15 03:06:17;;;;;;;;;;;10.10;99.90;;;;;;2201383;26;19930;-75
2024/04/15 03:07:18;;;;;;;;;;;10.00;99.90;;;;;;2215813;26;20017;-76
2024/04/15 03:08:18;;;;;;;;;;;10.00;99.90;;;;;;2211873;26;20361;-76
2024/04/15 03:09:21;;;;;;;;;;;9.90;99.90;;;;;;2229480;26;19981;-75
2024/04/15 03:10:21;;;;;;;;;;;10.00;99.90;;;;;;2230298;26;20018;-75
2024/04/15 03:11:22;;;;;;;;;;;9.80;99.90;;;;;;2224037;26;20431;-76
2024/04/15 03:12:22;;;;;;;;;;;9.80;99.90;;;;;;2202031;26;19933;-77
2024/04/15 03:13:22;;;;;;;;;;;9.70;99.90;;;;;;2188018;26;20516;-77
2024/04/15 03:14:23;;;;;;;;;;;9.60;99.90;;;;;;2215629;26;20454;-76
2024/04/15 03:15:23;;;;;;;;;;;9.50;99.90;;;;;;2209980;26;19930;-75
2024/04/15 03:16:24;;;;;;;;;;;9.60;99.90;;;;;;2214975;26;19934;-76
2024/04/15 03:17:24;;;;;;;;;;;9.50;99.90;;;;;;2231619;26;19929;-75
2024/04/15 03:18:25;;;;;;;;;;;9.60;99.90;;;;;;2225729;26;19936;-75
2024/04/15 03:19:25;;;;;;;;;;;9.50;99.90;;;;;;2230918;26;19929;-75
2024/04/15 03:20:26;;;;;;;;;;;9.40;99.90;;;;;;2222957;26;19929;-75
2024/04/15 03:21:27;;;;;;;;;;;9.40;99.90;;;;;;2231312;26;19940;-75
2024/04/15 03:22:27;;;;;;;;;;;9.40;99.90;;;;;;2224558;26;19953;-75
2024/04/15 03:23:28;;;;;;;;;;;9.30;99.90;;;;;;2225865;26;19983;-75
2024/04/15 03:24:29;;;;;;;;;;;9.30;99.90;;;;;;2229790;26;19987;-75
2024/04/15 03:25:30;;;;;;;;;;;9.40;99.90;;;;;;2224134;26;19957;-75
2024/04/15 03:26:30;;;;;;;;;;;9.20;99.90;;;;;;2209701;26;19961;-74
2024/04/15 03:27:31;;;;;;;;;;;9.10;99.90;;;;;;2201142;26;20008;-76
2024/04/15 03:28:31;;;;;;;;;;;9.10;99.90;;;;;;2208479;26;19933;-74
2024/04/15 03:29:32;;;;;;;;;;;9.10;99.90;;;;;;2224562;26;19945;-73
2024/04/15 03:30:32;;;;;;;;;;;9.10;99.90;;;;;;2225045;26;19940;-74
2024/04/15 03:31:33;;;;;;;;;;;9.10;99.90;;;;;;2226439;26;19929;-73
2024/04/15 03:32:34;;;;;;;;;;;9.10;99.90;;;;;;2209079;26;20002;-73
2024/04/15 03:33:34;;;;;;;;;;;9.10;99.90;;;;;;2201415;26;20000;-74
2024/04/15 03:34:34;;;;;;;;;;;9.10;99.90;;;;;;2215451;26;20003;-73
2024/04/15 03:35:35;;;;;;;;;;;9.10;99.90;;;;;;2231487;26;19936;-74
2024/04/15 03:36:36;;;;;;;;;;;9.10;99.90;;;;;;2214087;26;20007;-74
2024/04/15 03:37:36;;;;;;;;;;;9.10;99.90;;;;;;2209373;26;20367;-73
2024/04/15 03:38:37;;;;;;;;;;;9.10;99.90;;;;;;2226008;26;19942;-73
2024/04/15 03:39:37;;;;;;;;;;;9.00;99.90;;;;;;2221348;26;20235;-74
2024/04/15 03:40:38;;;;;;;;;;;9.00;99.90;;;;;;2216179;26;20329;-72
2024/04/15 03:41:38;;;;;;;;;;;8.90;99.90;;;;;;2223744;26;20401;-72
2024/04/15 03:42:39;;;;;;;;;;;8.80;99.90;;;;;;2214496;26;19936;-73
2024/04/15 03:43:40;;;;;;;;;;;8.90;99.90;;;;;;2201310;26;19937;-72
2024/04/15 03:44:41;;;;;;;;;;;8.90;99.90;;;;;;2194822;26;20394;-72
2024/04/15 03:45:41;;;;;;;;;;;8.90;99.90;;;;;;2209608;26;19930;-73
2024/04/15 03:46:42;;;;;;;;;;;8.90;99.90;;;;;;2230330;26;20192;-73
2024/04/15 03:47:42;;;;;;;;;;;8.90;99.90;;;;;;2230258;26;19929;-73
2024/04/15 03:48:43;;;;;;;;;;;9.00;99.90;;;;;;2229942;26;20518;-72
2024/04/15 03:49:43;;;;;;;;;;;9.00;99.90;;;;;;2229734;26;20306;-72
2024/04/15 03:50:44;;;;;;;;;;;9.00;99.90;;;;;;2210017;26;20257;-72
2024/04/15 03:51:44;;;;;;;;;;;9.00;99.90;;;;;;2211451;26;19972;-73
2024/04/15 03:52:45;;;;;;;;;;;9.00;99.90;;;;;;2223916;26;19930;-75
2024/04/15 03:53:45;;;;;;;;;;;8.90;99.90;;;;;;2229600;26;19933;-73
2024/04/15 03:54:46;;;;;;;;;;;8.90;99.90;;;;;;2225946;26;20032;-73
2024/04/15 03:55:54;;;;;;;;;;;8.90;99.90;;;;;;2227352;26;19929;-73
2024/04/15 03:56:54;;;;;;;;;;;8.90;99.90;;;;;;2227493;26;19992;-73
2024/04/15 03:57:55;;;;;;;;;;;9.00;99.90;;;;;;2208523;26;20007;-72
2024/04/15 03:58:55;;;;;;;;;;;9.00;99.90;;;;;;2211200;26;20003;-72
2024/04/15 03:59:55;;;;;;;;;;;9.00;99.90;;;;;;2217060;26;20003;-72
2024/04/15 04:00:59;;;;;;;;;;;9.00;99.90;;;;;;2227263;26;19937;-72
2024/04/15 04:02:00;;;;;;;;;;;9.00;99.90;;;;;;2227741;26;20160;-71
2024/04/15 04:03:04;;;;;;;;;;;9.00;99.90;;;;;;2224134;26;20563;-72
2024/04/15 04:04:04;;;;;;;;;;;9.00;99.90;;;;;;2231066;26;19943;-72
2024/04/15 04:05:05;;;;;;;;;;;9.00;99.90;;;;;;2231051;26;19961;-73
2024/04/15 04:06:06;;;;;;;;;;;8.90;99.90;;;;;;2229569;26;20267;-72
2024/04/15 04:07:06;;;;;;;;;;;8.90;99.90;;;;;;2230182;26;19941;-72
2024/04/15 04:08:07;;;;;;;;;;;8.80;99.90;;;;;;2224072;26;19935;-74
2024/04/15 04:09:08;;;;;;;;;;;8.80;99.90;;;;;;2225470;26;19929;-72
2024/04/15 04:10:08;;;;;;;;;;;8.80;99.90;;;;;;2229712;26;19929;-71
2024/04/15 04:11:09;;;;;;;;;;;8.80;99.90;;;;;;2223634;26;20299;-72
2024/04/15 04:12:09;;;;;;;;;;;8.80;99.90;;;;;;2209075;26;19937;-72
2024/04/15 04:13:10;;;;;;;;;;;8.80;99.90;;;;;;2214728;26;19934;-72
2024/04/15 04:14:10;;;;;;;;;;;8.90;99.90;;;;;;2224140;26;20389;-73
2024/04/15 04:15:11;;;;;;;;;;;8.90;99.90;;;;;;2224564;26;19999;-74
2024/04/15 04:16:12;;;;;;;;;;;8.80;99.90;;;;;;2225040;26;20242;-72
2024/04/15 04:17:13;;;;;;;;;;;8.80;99.90;;;;;;2229439;26;20028;-73
2024/04/15 04:18:13;;;;;;;;;;;8.90;99.90;;;;;;2232039;26;19995;-72
2024/04/15 04:19:14;;;;;;;;;;;8.80;99.90;;;;;;2226817;26;19998;-72
2024/04/15 04:20:14;;;;;;;;;;;8.90;99.90;;;;;;2231397;26;20371;-72
2024/04/15 04:21:15;;;;;;;;;;;8.90;99.90;;;;;;2224927;26;19935;-73
2024/04/15 04:22:15;;;;;;;;;;;8.90;99.90;;;;;;2226294;26;19936;-72
2024/04/15 04:23:16;;;;;;;;;;;8.90;99.90;;;;;;2232268;26;19929;-72
2024/04/15 04:24:17;;;;;;;;;;;8.90;99.90;;;;;;2226100;26;19940;-72
2024/04/15 04:25:17;;;;;;;;;;;9.00;99.90;;;;;;2210067;26;20416;-71
2024/04/15 04:26:18;;;;;;;;;;;8.90;99.90;;;;;;2216541;26;20052;-73
2024/04/15 04:27:18;;;;;;;;;;;8.80;99.90;;;;;;2195451;26;20463;-73
2024/04/15 04:28:19;;;;;;;;;;;8.90;99.90;;;;;;2210161;26;20333;-72
2024/04/15 04:29:19;;;;;;;;;;;8.90;99.90;;;;;;2232100;26;19929;-72
2024/04/15 04:30:20;;;;;;;;;;;8.90;99.90;;;;;;2225176;26;19929;-72
2024/04/15 04:31:20;;;;;;;;;;;8.90;99.90;;;;;;2220483;26;19936;-71
2024/04/15 04:32:21;;;;;;;;;;;8.90;99.90;;;;;;2215861;26;19962;-72
2024/04/15 04:33:22;;;;;;;;;;;8.90;99.90;;;;;;2196293;26;19930;-71
2024/04/15 04:34:22;;;;;;;;;;;8.90;99.90;;;;;;2212460;26;20004;-73
2024/04/15 04:35:22;;;;;;;;;;;8.90;99.90;;;;;;2225592;26;19930;-71
2024/04/15 04:36:24;;;;;;;;;;;8.90;99.90;;;;;;2231782;26;19957;-71
2024/04/15 04:37:24;;;;;;;;;;;8.90;99.90;;;;;;2223089;26;20399;-71
2024/04/15 04:38:24;;;;;;;;;;;8.90;99.90;;;;;;2209636;26;19934;-71
2024/04/15 04:39:25;;;;;;;;;;;8.80;99.90;;;;;;2236111;26;19940;-76
2024/04/15 04:40:26;;;;;;;;;;;8.70;99.90;;;;;;2217770;26;19968;-75
2024/04/15 04:41:26;;;;;;;;;;;8.70;99.90;;;;;;2213367;26;19984;-86
2024/04/15 04:42:27;;;;;;;;;;;8.70;99.90;;;;;;2222797;26;19933;-69
2024/04/15 04:43:28;;;;;;;;;;;8.70;99.90;;;;;;2216481;26;20310;-69
2024/04/15 04:44:28;;;;;;;;;;;8.80;99.90;;;;;;2202041;26;20433;-70
2024/04/15 04:45:29;;;;;;;;;;;8.80;99.90;;;;;;2216661;26;19933;-69
2024/04/15 04:46:29;;;;;;;;;;;8.80;99.90;;;;;;2232239;26;19932;-71
2024/04/15 04:47:31;;;;;;;;;;;8.80;99.90;;;;;;2230782;26;19929;-69
2024/04/15 04:48:31;;;;;;;;;;;8.70;99.90;;;;;;2226852;26;19929;-69
2024/04/15 04:49:32;;;;;;;;;;;8.70;99.90;;;;;;2225542;26;19957;-68
2024/04/15 04:50:32;;;;;;;;;;;8.70;99.90;;;;;;2230112;26;20061;-68
2024/04/15 04:51:32;;;;;;;;;;;8.70;99.90;;;;;;2227623;26;19929;-67
2024/04/15 04:52:33;;;;;;;;;;;8.70;99.90;;;;;;2226813;26;19986;-70
2024/04/15 04:53:34;;;;;;;;;;;8.70;99.90;;;;;;2209217;26;20703;-68
2024/04/15 04:54:34;;;;;;;;;;;8.70;99.90;;;;;;2231733;26;19957;-69
2024/04/15 04:55:36;;;;;;;;;;;8.70;99.90;;;;;;2232440;26;19929;-68
2024/04/15 04:56:39;;;;;;;;;;;8.60;99.90;;;;;;2232398;26;20287;-70
2024/04/15 04:57:40;;;;;;;;;;;8.60;99.90;;;;;;2230185;26;19945;-69
2024/04/15 04:58:41;;;;;;;;;;;8.60;99.90;;;;;;2228048;26;20324;-69
2024/04/15 04:59:41;;;;;;;;;;;8.60;99.90;;;;;;2225012;26;19978;-69
2024/04/15 05:00:42;;;;;;;;;;;8.70;99.90;;;;;;2232255;26;19963;-69
2024/04/15 05:01:42;;;;;;;;;;;8.70;99.90;;;;;;2232275;26;19933;-69
2024/04/15 05:02:44;;;;;;;;;;;8.70;99.90;;;;;;2225110;26;20352;-70
2024/04/15 05:03:49;;;;;;;;;;;8.70;99.90;;;;;;2232351;26;19998;-69
2024/04/15 05:04:49;;;;;;;;;;;8.60;99.90;;;;;;2216806;26;20453;-69
2024/04/15 05:05:50;;;;;;;;;;;8.60;99.90;;;;;;2215438;26;19961;-68
2024/04/15 05:06:50;;;;;;;;;;;8.60;99.90;;;;;;2232362;26;19935;-70
2024/04/15 05:07:51;;;;;;;;;;;8.50;99.90;;;;;;2226123;26;19962;-68
2024/04/15 05:08:51;;;;;;;;;;;8.50;99.90;;;;;;2215241;26;19941;-68
2024/04/15 05:09:52;;;;;;;;;;;8.50;99.90;;;;;;2209034;26;19929;-68
2024/04/15 05:10:52;;;;;;;;;;;8.60;99.90;;;;;;2210469;26;20327;-69
2024/04/15 05:11:53;;;;;;;;;;;8.60;99.90;;;;;;2210068;26;20476;-69
2024/04/15 05:12:53;;;;;;;;;;;8.60;99.90;;;;;;2225294;26;21083;-70
2024/04/15 05:13:54;;;;;;;;;;;8.60;99.90;;;;;;2231261;26;19973;-69
2024/04/15 05:14:54;;;;;;;;;;;8.60;99.90;;;;;;2224557;26;19936;-69
2024/04/15 05:16:11;;;;;;;;;;;8.60;99.90;;;;;;2228488;26;19935;-69
2024/04/15 05:17:11;;;;;;;;;;;8.60;99.90;;;;;;2224326;26;19929;-68
2024/04/15 05:18:12;;;;;;;;;;;8.60;99.90;;;;;;2227017;26;19983;-69
2024/04/15 05:19:13;;;;;;;;;;;8.60;99.90;;;;;;2227422;26;20352;-68
2024/04/15 05:20:13;;;;;;;;;;;8.60;99.90;;;;;;2221563;26;20294;-69
2024/04/15 05:21:17;;;;;;;;;;;8.60;99.90;;;;;;2225865;26;20013;-68
2024/04/15 05:22:17;;;;;;;;;;;8.60;99.90;;;;;;2219978;26;19930;-68
2024/04/15 05:23:18;;;;;;;;;;;8.60;99.90;;;;;;2225008;26;20287;-68
2024/04/15 05:24:18;;;;;;;;;;;8.60;99.90;;;;;;2228451;26;20011;-69
2024/04/15 05:25:19;;;;;;;;;;;8.60;99.90;;;;;;2225308;26;19938;-70
2024/04/15 05:26:19;;;;;;;;;;;8.60;99.90;;;;;;2231162;26;20535;-69
2024/04/15 05:27:20;;;;;;;;;;;8.60;99.90;;;;;;2215671;26;19944;-69
2024/04/15 05:28:20;;;;;;;;;;;8.70;99.90;;;;;;2210023;26;19929;-69
2024/04/15 05:29:21;;;;;;;;;;;8.70;99.90;;;;;;2224696;26;20036;-70
2024/04/15 05:30:21;;;;;;;;;;;8.70;99.90;;;;;;2230718;26;19963;-77
2024/04/15 05:31:22;;;;;;;;;;;8.70;99.90;;;;;;2211852;26;19944;-77
2024/04/15 05:32:22;;;;;;;;;;;8.70;99.90;;;;;;2200593;26;19976;-76
2024/04/15 05:33:23;;;;;;;;;;;8.70;99.90;;;;;;2218895;26;20486;-78
2024/04/15 05:34:23;;;;;;;;;;;8.70;99.90;;;;;;2231845;26;20005;-77
2024/04/15 05:35:24;;;;;;;;;;;8.70;99.90;;;;;;2214379;26;20390;-77
2024/04/15 05:36:24;;;;;;;;;;;8.70;99.90;;;;;;2216483;26;20621;-77
2024/04/15 05:37:25;;;;;;;;;;;8.70;99.90;;;;;;2214449;26;19929;-77
2024/04/15 05:38:26;;;;;;;;;;;8.80;99.90;;;;;;2195059;26;19939;-78
2024/04/15 05:39:26;;;;;;;;;;;8.80;99.90;;;;;;2212067;26;19929;-77
2024/04/15 05:40:27;;;;;;;;;;;8.80;99.90;;;;;;2229012;26;19936;-79
2024/04/15 05:41:28;;;;;;;;;;;8.80;99.90;;;;;;2208833;26;19936;-85
2024/04/15 05:42:28;;;;;;;;;;;8.80;99.90;;;;;;2207443;26;19945;-87
2024/04/15 05:43:29;;;;;;;;;;;8.80;99.90;;;;;;2214914;26;20427;-81
2024/04/15 05:44:29;;;;;;;;;;;8.80;99.90;;;;;;2230757;26;19929;-79
2024/04/15 05:45:30;;;;;;;;;;;8.80;99.90;;;;;;2209348;26;19999;-81
2024/04/15 05:46:30;;;;;;;;;;;8.80;99.90;;;;;;2211866;26;20389;-79
2024/04/15 05:47:31;;;;;;;;;;;8.80;99.90;;;;;;2216147;26;19965;-82
2024/04/15 05:48:32;;;;;;;;;;;8.80;99.90;;;;;;2204635;26;20595;-83
2024/04/15 05:49:37;;;;;;;;;;;8.80;99.90;;;;;;2208070;26;20004;-82
2024/04/15 05:50:38;;;;;;;;;;;8.80;99.90;;;;;;2204983;26;19946;-83
2024/04/15 05:51:40;;;;;;;;;;;8.80;99.90;;;;;;2210990;26;19929;-80
2024/04/15 05:52:45;;;;;;;;;;;8.80;99.90;;;;;;2223856;26;19933;-80
2024/04/15 05:53:49;;;;;;;;;;;8.80;99.90;;;;;;2216389;26;20075;-81
2024/04/15 05:54:51;;;;;;;;;;;8.80;99.90;;;;;;2204083;26;19930;-82
2024/04/15 05:55:52;;;;;;;;;;;8.90;99.90;;;;;;2209888;26;20071;-81
2024/04/15 05:56:52;;;;;;;;;;;8.90;99.90;;;;;;2210519;26;19937;-82